createdAt,value
2023-03-19T00:02:25.966Z,54.91
2023-03-19T00:06:28.911Z,55.11
2023-03-19T00:10:34.719Z,55.44
2023-03-19T00:14:37.656Z,55.06
2023-03-19T00:18:42.339Z,55.25
2023-03-19T00:22:45.269Z,55.85
2023-03-19T00:26:49.023Z,56.08
2023-03-19T00:30:51.972Z,56.08
2023-03-19T00:34:56.825Z,56.45
2023-03-19T00:38:59.709Z,56.64
2023-03-19T00:43:03.781Z,56.52
2023-03-19T00:47:07.389Z,56.46
2023-03-19T00:51:13.083Z,56.96
2023-03-19T00:55:16.059Z,56.76
2023-03-19T00:59:19.362Z,57.07
2023-03-19T01:03:22.551Z,57.42
2023-03-19T01:07:27.804Z,57.56
2023-03-19T01:11:31.006Z,57.41
2023-03-19T01:15:37.907Z,57.76
2023-03-19T01:19:41.081Z,57.45
2023-03-19T01:23:46.087Z,57.77
2023-03-19T01:27:49.260Z,57.46
2023-03-19T01:31:52.799Z,57.66
2023-03-19T01:35:58.065Z,57.87
2023-03-19T01:40:03.017Z,57.86
2023-03-19T01:44:27.785Z,57.34
2023-03-19T01:48:40.397Z,58.10
2023-03-19T01:52:43.353Z,57.89
2023-03-19T01:56:51.162Z,57.70
2023-03-19T02:00:54.519Z,58.07
2023-03-19T02:05:02.278Z,57.73
2023-03-19T02:09:05.609Z,58.30
2023-03-19T02:13:10.375Z,58.56
2023-03-19T02:17:13.859Z,58.68
2023-03-19T02:21:19.418Z,57.99
2023-03-19T02:25:30.028Z,58.74
2023-03-19T02:29:35.472Z,58.68
2023-03-19T02:33:38.505Z,58.63
2023-03-19T02:37:42.176Z,58.68
2023-03-19T02:41:46.801Z,58.85
2023-03-19T02:45:51.835Z,58.54
2023-03-19T02:49:55.107Z,58.91
2023-03-19T02:53:58.458Z,58.88
2023-03-19T02:58:01.540Z,59.16
2023-03-19T03:02:07.187Z,59.19
2023-03-19T03:06:10.421Z,59.15
2023-03-19T03:10:14.122Z,59.67
2023-03-19T03:14:17.116Z,59.14
2023-03-19T03:18:21.797Z,59.86
2023-03-19T03:22:24.774Z,59.36
2023-03-19T03:26:28.129Z,59.83
2023-03-19T03:30:31.406Z,60.52
2023-03-19T03:34:37.060Z,60.18
2023-03-19T03:38:40.725Z,59.75
2023-03-19T03:42:44.515Z,60.39
2023-03-19T03:46:48.195Z,60.24
2023-03-19T03:50:53.270Z,60.64
2023-03-19T03:54:56.697Z,59.97
2023-03-19T03:58:59.944Z,60.92
2023-03-19T04:03:03.319Z,60.60
2023-03-19T04:07:09.412Z,60.82
2023-03-19T04:11:12.623Z,60.93
2023-03-19T04:15:17.147Z,60.87
2023-03-19T04:19:20.798Z,60.78
2023-03-19T04:23:25.754Z,61.05
2023-03-19T04:27:28.849Z,61.36
2023-03-19T04:31:32.320Z,61.35
2023-03-19T04:35:35.576Z,61.77
2023-03-19T04:39:40.450Z,61.69
2023-03-19T04:43:43.568Z,61.69
2023-03-19T04:47:47.144Z,61.54
2023-03-19T04:51:50.250Z,61.94
2023-03-19T04:55:55.042Z,62.11
2023-03-19T04:59:58.297Z,61.83
2023-03-19T05:04:01.977Z,61.84
2023-03-19T05:08:05.236Z,61.71
2023-03-19T05:12:10.740Z,61.73
2023-03-19T05:16:14.119Z,61.96
2023-03-19T05:20:18.416Z,62.03
2023-03-19T05:24:21.401Z,62.96
2023-03-19T05:28:25.975Z,62.73
2023-03-19T05:32:29.554Z,62.82
2023-03-19T05:36:33.019Z,63.08
2023-03-19T05:40:36.163Z,63.07
2023-03-19T05:44:41.136Z,62.35
2023-03-19T05:48:44.039Z,62.34
2023-03-19T05:52:47.492Z,61.92
2023-03-19T05:56:50.756Z,61.32
2023-03-19T06:00:58.274Z,60.89
2023-03-19T06:05:01.342Z,61.37
2023-03-19T06:09:05.928Z,59.71
2023-03-19T06:13:09.171Z,59.84
2023-03-19T06:17:14.172Z,60.41
2023-03-19T06:21:17.318Z,60.84
2023-03-19T06:25:20.826Z,62.83
2023-03-19T06:29:23.757Z,61.99
2023-03-19T06:33:32.506Z,61.90
2023-03-19T06:37:35.723Z,60.44
2023-03-19T06:41:39.305Z,60.10
2023-03-19T06:45:42.471Z,58.77
2023-03-19T06:49:47.098Z,59.97
2023-03-19T06:53:50.554Z,58.13
2023-03-19T06:57:53.787Z,57.58
2023-03-19T07:01:57.981Z,56.88
2023-03-19T07:06:02.428Z,56.48
2023-03-19T07:10:06.885Z,53.87
2023-03-19T07:14:10.050Z,52.53
2023-03-19T07:18:13.288Z,54.74
2023-03-19T07:22:18.086Z,52.85
2023-03-19T07:26:21.766Z,50.80
2023-03-19T07:30:25.197Z,51.41
2023-03-19T07:34:28.626Z,50.98
2023-03-19T07:38:33.038Z,50.12
2023-03-19T07:42:37.260Z,50.05
2023-03-19T07:46:40.487Z,48.30
2023-03-19T07:50:44.539Z,48.04
2023-03-19T07:54:50.392Z,47.02
2023-03-19T07:58:53.771Z,45.61
2023-03-19T08:02:56.882Z,46.84
2023-03-19T08:07:01.120Z,45.40
2023-03-19T08:11:07.012Z,45.05
2023-03-19T08:15:12.222Z,45.54
2023-03-19T08:19:15.392Z,46.01
2023-03-19T08:23:18.714Z,45.93
2023-03-19T08:27:23.092Z,45.16
2023-03-19T08:31:27.849Z,46.09
2023-03-19T08:35:31.603Z,45.26
2023-03-19T08:39:35.083Z,44.79
2023-03-19T08:43:40.349Z,44.79
2023-03-19T08:47:43.600Z,43.13
2023-03-19T08:51:47.435Z,45.22
2023-03-19T08:55:54.243Z,44.25
2023-03-19T08:59:59.596Z,43.91
2023-03-19T09:04:02.691Z,43.43
2023-03-19T09:08:06.529Z,43.08
2023-03-19T09:12:12.085Z,43.41
2023-03-19T09:16:16.888Z,41.54
2023-03-19T09:20:20.381Z,42.07
2023-03-19T09:24:23.695Z,41.59
2023-03-19T09:28:27.514Z,43.23
2023-03-19T09:32:32.578Z,40.66
2023-03-19T09:36:35.897Z,40.47
2023-03-19T09:40:42.900Z,41.47
2023-03-19T09:44:47.628Z,40.83
2023-03-19T09:48:57.898Z,39.86
2023-03-19T09:53:05.443Z,37.72
2023-03-19T09:57:13.218Z,38.60
2023-03-19T10:01:27.213Z,40.67
2023-03-19T10:05:43.780Z,39.00
2023-03-19T10:10:00.193Z,40.26
2023-03-19T10:14:19.037Z,39.47
2023-03-19T10:18:26.502Z,39.25
2023-03-19T10:22:37.465Z,40.68
2023-03-19T10:26:41.176Z,38.10
2023-03-19T10:30:48.233Z,37.25
2023-03-19T10:34:54.285Z,37.56
2023-03-19T10:38:58.897Z,37.78
2023-03-19T10:43:14.713Z,39.56
2023-03-19T10:47:20.359Z,37.83
2023-03-19T10:51:27.760Z,40.20
2023-03-19T10:55:33.554Z,40.19
2023-03-19T10:59:38.862Z,39.86
2023-03-19T11:03:53.049Z,40.58
2023-03-19T11:08:01.836Z,40.64
2023-03-19T11:12:19.865Z,41.34
2023-03-19T11:16:23.670Z,38.30
2023-03-19T11:20:32.233Z,39.67
2023-03-19T11:24:38.928Z,38.85
2023-03-19T11:28:44.733Z,40.20
2023-03-19T11:33:17.716Z,40.94
2023-03-19T11:37:28.650Z,42.68
2023-03-19T11:41:45.868Z,39.97
2023-03-19T11:46:02.988Z,38.85
2023-03-19T11:50:19.755Z,39.76
2023-03-19T11:54:28.825Z,38.96
2023-03-19T11:58:52.065Z,39.62
2023-03-19T12:03:28.752Z,39.72
2023-03-19T12:07:36.771Z,39.05
2023-03-19T12:11:50.619Z,39.50
2023-03-19T12:16:03.114Z,38.62
2023-03-19T12:20:29.781Z,40.34
2023-03-19T12:24:48.526Z,39.92
2023-03-19T12:29:02.812Z,38.65
2023-03-19T12:33:16.201Z,39.37
2023-03-19T12:37:27.268Z,39.25
2023-03-19T12:41:32.792Z,38.37
2023-03-19T12:45:40.284Z,40.75
2023-03-19T12:49:49.141Z,40.26
2023-03-19T12:53:59.839Z,40.47
2023-03-19T12:58:08.392Z,41.30
2023-03-19T13:02:23.697Z,41.76
2023-03-19T13:06:32.549Z,40.87
2023-03-19T13:10:37.624Z,42.03
2023-03-19T13:14:56.222Z,42.48
2023-03-19T13:19:09.395Z,41.74
2023-03-19T13:23:16.385Z,42.20
2023-03-19T13:27:23.972Z,40.83
2023-03-19T13:31:28.498Z,41.21
2023-03-19T13:35:42.234Z,42.57
2023-03-19T13:39:48.665Z,41.82
2023-03-19T13:44:33.823Z,43.37
2023-03-19T13:48:40.247Z,43.29
2023-03-19T13:52:52.892Z,43.95
2023-03-19T13:57:07.089Z,44.85
2023-03-19T14:01:28.937Z,40.95
2023-03-19T14:05:38.034Z,43.10
2023-03-19T14:09:43.516Z,41.74
2023-03-19T14:13:51.102Z,42.18
2023-03-19T14:18:03.471Z,42.16
2023-03-19T14:22:11.872Z,43.13
2023-03-19T14:26:18.975Z,41.99
2023-03-19T14:30:32.932Z,44.04
2023-03-19T14:34:40.609Z,42.46
2023-03-19T14:38:51.424Z,43.35
2023-03-19T14:43:07.439Z,44.23
2023-03-19T14:47:26.449Z,44.56
2023-03-19T14:51:52.143Z,44.89
2023-03-19T14:55:56.608Z,43.92
2023-03-19T15:00:00.847Z,43.81
2023-03-19T15:04:08.008Z,45.25
2023-03-19T15:08:14.694Z,45.32
2023-03-19T15:12:36.159Z,45.44
2023-03-19T15:16:49.002Z,46.52
2023-03-19T15:20:54.467Z,47.32
2023-03-19T15:25:07.666Z,46.26
2023-03-19T15:29:13.626Z,45.00
2023-03-19T15:33:37.296Z,45.42
2023-03-19T15:37:46.745Z,45.52
2023-03-19T15:41:51.890Z,45.64
2023-03-19T15:45:56.890Z,46.62
2023-03-19T15:50:03.986Z,45.96
2023-03-19T15:54:07.598Z,47.36
2023-03-19T15:58:14.400Z,47.08
2023-03-19T16:02:27.485Z,48.19
2023-03-19T16:06:32.735Z,48.76
2023-03-19T16:10:42.368Z,48.69
2023-03-19T16:14:46.610Z,49.19
2023-03-19T16:18:53.223Z,48.12
2023-03-19T16:22:58.957Z,48.08
2023-03-19T16:27:06.067Z,49.10
2023-03-19T16:31:22.404Z,49.21
2023-03-19T16:35:28.658Z,49.35
2023-03-19T16:39:37.490Z,51.18
2023-03-19T16:43:45.899Z,51.59
2023-03-19T16:47:50.999Z,50.83
2023-03-19T16:51:55.431Z,51.00
2023-03-19T16:56:00.689Z,51.66
2023-03-19T17:00:04.167Z,51.34
2023-03-19T17:04:14.101Z,52.04
2023-03-19T17:08:21.856Z,52.62
2023-03-19T17:12:25.216Z,52.87
2023-03-19T17:16:29.293Z,53.75
2023-03-19T17:20:37.163Z,54.21
2023-03-19T17:24:41.928Z,54.57
2023-03-19T17:28:45.955Z,55.39
2023-03-19T17:32:52.566Z,55.42
2023-03-19T17:36:58.607Z,56.16
2023-03-19T17:41:02.956Z,56.70
2023-03-19T17:45:07.160Z,56.90
2023-03-19T17:49:19.025Z,56.12
2023-03-19T17:53:22.791Z,56.85
2023-03-19T17:57:27.512Z,57.11
2023-03-19T18:01:31.648Z,57.06
2023-03-19T18:05:34.774Z,57.51
2023-03-19T18:09:38.080Z,57.58
2023-03-19T18:13:43.133Z,57.72
2023-03-19T18:17:50.480Z,57.76
2023-03-19T18:21:53.470Z,58.14
2023-03-19T18:25:56.790Z,58.53
2023-03-19T18:30:02.705Z,58.71
2023-03-19T18:34:10.265Z,58.93
2023-03-19T18:38:22.005Z,58.66
2023-03-19T18:42:25.273Z,59.17
2023-03-19T18:46:32.685Z,59.60
2023-03-19T18:50:36.162Z,59.55
2023-03-19T18:54:39.561Z,59.71
2023-03-19T18:58:43.573Z,59.58
2023-03-19T19:02:48.591Z,59.65
2023-03-19T19:06:52.365Z,59.77
2023-03-19T19:10:58.322Z,59.63
2023-03-19T19:15:06.816Z,59.65
2023-03-19T19:19:17.688Z,59.47
2023-03-19T19:23:22.174Z,59.83
2023-03-19T19:27:27.252Z,60.00
2023-03-19T19:31:32.721Z,60.20
2023-03-19T19:35:37.220Z,59.83
2023-03-19T19:39:40.855Z,60.29
2023-03-19T19:43:45.821Z,60.50
2023-03-19T19:47:49.315Z,60.63
2023-03-19T19:51:53.679Z,60.67
2023-03-19T19:55:57.189Z,60.75
2023-03-19T20:00:00.703Z,60.97
2023-03-19T20:04:06.037Z,60.95
2023-03-19T20:08:12.365Z,60.71
2023-03-19T20:12:22.932Z,60.85
2023-03-19T20:16:27.740Z,60.92
2023-03-19T20:20:33.547Z,61.05
2023-03-19T20:24:37.994Z,61.42
2023-03-19T20:28:42.727Z,61.80
2023-03-19T20:32:48.317Z,61.74
2023-03-19T20:36:53.581Z,61.75
2023-03-19T20:40:59.482Z,61.64
2023-03-19T20:45:03.269Z,61.78
2023-03-19T20:49:06.422Z,61.65
2023-03-19T20:53:09.944Z,61.77
2023-03-19T20:57:17.561Z,61.56
2023-03-19T21:01:24.352Z,62.04
2023-03-19T21:05:34.939Z,61.96
2023-03-19T21:09:38.360Z,62.55
2023-03-19T21:13:42.680Z,62.55
2023-03-19T21:17:46.899Z,62.99
2023-03-19T21:21:50.071Z,63.33
2023-03-19T21:25:53.690Z,63.36
2023-03-19T21:29:58.130Z,63.53
2023-03-19T21:34:02.042Z,63.67
2023-03-19T21:38:05.219Z,63.77
2023-03-19T21:42:09.829Z,63.95
2023-03-19T21:46:24.115Z,64.00
2023-03-19T21:50:28.132Z,64.21
2023-03-19T21:54:31.064Z,64.17
2023-03-19T21:58:36.663Z,64.20
2023-03-19T22:02:43.376Z,64.43
2023-03-19T22:06:47.039Z,64.71
2023-03-19T22:10:54.282Z,64.61
2023-03-19T22:14:57.578Z,64.23
2023-03-19T22:19:02.127Z,65.20
2023-03-19T22:23:05.657Z,65.01
2023-03-19T22:27:16.284Z,65.28
2023-03-19T22:31:19.969Z,65.79
2023-03-19T22:35:24.693Z,65.94
2023-03-19T22:39:28.479Z,65.99
2023-03-19T22:43:34.330Z,66.32
2023-03-19T22:47:40.199Z,66.88
2023-03-19T22:51:45.199Z,66.38
2023-03-19T22:55:48.452Z,66.33
2023-03-19T22:59:54.274Z,66.18
2023-03-19T23:03:57.864Z,66.26
2023-03-19T23:08:05.496Z,66.29
2023-03-19T23:12:12.755Z,66.21
2023-03-19T23:16:21.980Z,66.20
2023-03-19T23:20:27.629Z,66.16
2023-03-19T23:24:32.419Z,66.19
2023-03-19T23:28:36.682Z,66.60
2023-03-19T23:32:39.627Z,66.05
2023-03-19T23:36:44.154Z,66.31
2023-03-19T23:40:48.801Z,66.04
2023-03-19T23:44:53.565Z,65.60
2023-03-19T23:48:57.652Z,65.40
2023-03-19T23:53:01.723Z,65.75
2023-03-19T23:57:08.796Z,65.91
